createdAt,value
2019-03-24T00:01:50.150Z,3.00
2019-03-24T00:04:21.130Z,3.10
2019-03-24T00:06:52.071Z,3.20
2019-03-24T00:09:23.041Z,3.10
2019-03-24T00:11:54.032Z,3.00
2019-03-24T00:14:24.993Z,2.90
2019-03-24T00:16:55.954Z,2.80
2019-03-24T00:19:26.946Z,2.90
2019-03-24T00:21:57.875Z,2.90
2019-03-24T00:24:29.344Z,2.90
2019-03-24T00:27:00.440Z,2.90
2019-03-24T00:29:31.789Z,3.00
2019-03-24T00:32:03.884Z,3.00
2019-03-24T00:34:35.038Z,3.00
2019-03-24T00:37:05.985Z,2.70
2019-03-24T00:39:36.964Z,2.60
2019-03-24T00:42:07.900Z,2.60
2019-03-24T00:44:38.879Z,2.60
2019-03-24T00:47:09.827Z,2.60
2019-03-24T00:49:40.812Z,2.50
2019-03-24T00:52:11.752Z,2.40
2019-03-24T00:54:42.748Z,2.50
2019-03-24T00:57:13.697Z,2.50
2019-03-24T00:59:44.774Z,2.50
2019-03-24T01:02:15.748Z,2.50
2019-03-24T01:04:46.810Z,2.40
2019-03-24T01:07:17.761Z,2.30
2019-03-24T01:09:48.739Z,2.30
2019-03-24T01:12:19.675Z,2.30
2019-03-24T01:14:50.649Z,2.20
2019-03-24T01:17:21.674Z,2.10
2019-03-24T01:19:52.650Z,2.20
2019-03-24T01:22:23.606Z,2.30
2019-03-24T01:24:54.580Z,2.30
2019-03-24T01:27:25.531Z,2.40
2019-03-24T01:29:56.503Z,2.30
2019-03-24T01:32:27.508Z,2.20
2019-03-24T01:34:58.577Z,2.00
2019-03-24T01:37:29.523Z,1.90
2019-03-24T01:40:00.496Z,1.80
2019-03-24T01:42:31.461Z,1.70
2019-03-24T01:45:02.435Z,1.70
2019-03-24T01:47:33.402Z,1.70
2019-03-24T01:50:05.976Z,1.90
2019-03-24T01:52:36.919Z,2.00
2019-03-24T01:55:08.222Z,2.10
2019-03-24T01:57:39.185Z,2.00
2019-03-24T02:00:10.456Z,1.90
2019-03-24T02:02:41.397Z,1.80
2019-03-24T02:05:12.458Z,1.70
2019-03-24T02:07:43.440Z,1.80
2019-03-24T02:10:15.108Z,1.80
2019-03-24T02:12:46.071Z,1.80
2019-03-24T02:15:17.354Z,1.80
2019-03-24T02:17:48.245Z,1.60
2019-03-24T02:20:19.230Z,1.60
2019-03-24T02:22:50.193Z,1.60
2019-03-24T02:25:21.221Z,1.60
2019-03-24T02:27:52.259Z,1.60
2019-03-24T02:30:23.207Z,1.60
2019-03-24T02:32:54.188Z,1.60
2019-03-24T02:35:25.139Z,1.60
2019-03-24T02:37:56.148Z,1.60
2019-03-24T02:40:27.173Z,1.60
2019-03-24T02:42:58.146Z,1.60
2019-03-24T02:45:29.117Z,1.60
2019-03-24T02:48:00.144Z,1.60
2019-03-24T02:50:31.092Z,1.60
2019-03-24T02:53:03.066Z,1.60
2019-03-24T02:55:34.034Z,1.50
2019-03-24T02:58:05.015Z,1.50
2019-03-24T03:00:35.962Z,1.40
2019-03-24T03:03:07.015Z,1.50
2019-03-24T03:05:37.954Z,1.50
2019-03-24T03:08:08.928Z,1.50
2019-03-24T03:10:39.883Z,1.40
2019-03-24T03:13:10.854Z,1.40
2019-03-24T03:15:41.803Z,1.40
2019-03-24T03:18:12.778Z,1.30
2019-03-24T03:20:43.722Z,1.40
2019-03-24T03:23:14.715Z,1.40
2019-03-24T03:25:45.751Z,1.40
2019-03-24T03:28:16.696Z,1.40
2019-03-24T03:30:48.696Z,1.40
2019-03-24T03:33:19.781Z,1.40
2019-03-24T03:35:50.832Z,1.50
2019-03-24T03:38:21.799Z,1.60
2019-03-24T03:40:52.821Z,1.60
2019-03-24T03:43:23.812Z,1.60
2019-03-24T03:45:54.836Z,1.70
2019-03-24T03:48:25.963Z,1.60
2019-03-24T03:50:58.042Z,1.60
2019-03-24T03:53:28.991Z,1.50
2019-03-24T03:55:59.974Z,1.50
2019-03-24T03:58:30.989Z,1.50
2019-03-24T04:01:01.972Z,1.50
2019-03-24T04:03:32.920Z,1.40
2019-03-24T04:06:03.915Z,1.50
2019-03-24T04:08:34.924Z,1.70
2019-03-24T04:11:05.918Z,1.70
2019-03-24T04:13:36.858Z,1.50
2019-03-24T04:16:07.832Z,1.40
2019-03-24T04:18:38.779Z,1.40
2019-03-24T04:21:09.802Z,1.30
2019-03-24T04:23:40.920Z,1.20
2019-03-24T04:26:11.903Z,1.30
2019-03-24T04:28:42.845Z,1.30
2019-03-24T04:31:13.904Z,1.30
2019-03-24T04:33:44.955Z,1.20
2019-03-24T04:36:15.993Z,1.00
2019-03-24T04:38:46.961Z,0.90
2019-03-24T04:41:17.917Z,0.90
2019-03-24T04:43:48.896Z,0.90
2019-03-24T04:46:19.832Z,0.80
2019-03-24T04:48:50.817Z,0.80
2019-03-24T04:51:21.764Z,0.80
2019-03-24T04:53:52.746Z,0.70
2019-03-24T04:56:23.689Z,1.00
2019-03-24T04:58:54.666Z,1.30
2019-03-24T05:01:25.608Z,1.20
2019-03-24T05:03:56.593Z,1.40
2019-03-24T05:06:27.786Z,1.50
2019-03-24T05:08:58.812Z,1.20
2019-03-24T05:11:29.761Z,0.90
2019-03-24T05:14:00.732Z,0.80
2019-03-24T05:16:31.677Z,1.10
2019-03-24T05:19:02.650Z,1.10
2019-03-24T05:21:33.626Z,0.80
2019-03-24T05:24:04.605Z,0.90
2019-03-24T05:26:35.559Z,1.20
2019-03-24T05:29:06.528Z,1.30
2019-03-24T05:31:37.465Z,1.00
2019-03-24T05:34:08.438Z,0.80
2019-03-24T05:36:39.522Z,0.70
2019-03-24T05:39:10.463Z,0.70
2019-03-24T05:41:41.428Z,0.90
2019-03-24T05:44:12.384Z,1.20
2019-03-24T05:46:43.349Z,1.50
2019-03-24T05:49:14.294Z,1.40
2019-03-24T05:51:45.380Z,1.20
2019-03-24T05:54:16.328Z,1.20
2019-03-24T05:56:47.302Z,1.30
2019-03-24T05:59:18.251Z,1.40
2019-03-24T06:01:49.230Z,1.50
2019-03-24T06:04:20.177Z,1.60
2019-03-24T06:06:51.154Z,1.50
2019-03-24T06:09:22.173Z,1.60
2019-03-24T06:11:53.157Z,1.80
2019-03-24T06:14:24.098Z,1.90
2019-03-24T06:16:55.081Z,1.90
2019-03-24T06:19:26.073Z,1.80
2019-03-24T06:21:57.008Z,2.20
2019-03-24T06:24:27.986Z,2.40
2019-03-24T06:26:58.929Z,2.40
2019-03-24T06:29:29.912Z,2.40
2019-03-24T06:32:00.848Z,2.30
2019-03-24T06:34:31.950Z,2.40
2019-03-24T06:37:03.036Z,2.40
2019-03-24T06:39:34.016Z,2.60
2019-03-24T06:42:04.959Z,2.80
2019-03-24T06:44:35.924Z,3.10
2019-03-24T06:47:06.867Z,3.50
2019-03-24T06:49:37.838Z,3.70
2019-03-24T06:52:08.780Z,4.10
2019-03-24T06:54:39.824Z,4.20
2019-03-24T06:57:10.764Z,4.50
2019-03-24T06:59:41.739Z,4.80
2019-03-24T07:02:12.686Z,5.10
2019-03-24T07:04:43.727Z,5.30
2019-03-24T07:07:14.669Z,5.50
2019-03-24T07:09:45.639Z,5.80
2019-03-24T07:12:16.589Z,6.00
2019-03-24T07:14:47.559Z,6.20
2019-03-24T07:17:18.530Z,6.40
2019-03-24T07:19:49.488Z,6.50
2019-03-24T07:22:21.206Z,6.70
2019-03-24T07:24:52.139Z,6.90
2019-03-24T07:27:23.248Z,7.10
2019-03-24T07:29:54.188Z,7.30
2019-03-24T07:32:25.147Z,7.50
2019-03-24T07:34:56.087Z,7.60
2019-03-24T07:37:27.059Z,7.70
2019-03-24T07:39:58.003Z,7.90
2019-03-24T07:42:30.087Z,8.00
2019-03-24T07:45:01.032Z,8.20
2019-03-24T07:47:33.102Z,8.40
2019-03-24T07:50:06.111Z,8.50
2019-03-24T07:52:37.087Z,8.40
2019-03-24T07:55:08.687Z,8.70
2019-03-24T07:57:39.651Z,8.80
2019-03-24T08:00:12.390Z,9.00
2019-03-24T08:02:51.298Z,9.10
2019-03-24T08:05:20.513Z,9.20
2019-03-24T08:07:51.485Z,9.40
2019-03-24T08:10:22.430Z,9.50
2019-03-24T08:12:53.496Z,9.60
2019-03-24T08:15:24.615Z,9.80
2019-03-24T08:17:55.593Z,9.90
2019-03-24T08:20:26.529Z,10.10
2019-03-24T08:22:57.502Z,10.30
2019-03-24T08:25:28.481Z,10.50
2019-03-24T08:27:59.424Z,10.60
2019-03-24T08:30:35.778Z,10.60
2019-03-24T08:33:06.959Z,10.80
2019-03-24T08:35:37.944Z,11.00
2019-03-24T08:38:08.890Z,11.10
2019-03-24T08:40:39.881Z,11.30
2019-03-24T08:43:11.829Z,11.40
2019-03-24T08:45:42.826Z,11.50
2019-03-24T08:48:13.788Z,11.60
2019-03-24T08:50:44.813Z,11.70
2019-03-24T08:53:15.757Z,11.80
2019-03-24T08:55:46.779Z,12.00
2019-03-24T08:58:17.768Z,12.10
2019-03-24T09:00:48.822Z,12.20
2019-03-24T09:03:19.845Z,12.40
2019-03-24T09:05:50.866Z,12.50
2019-03-24T09:08:21.816Z,12.70
2019-03-24T09:10:52.796Z,12.90
2019-03-24T09:13:23.779Z,13.00
2019-03-24T09:15:54.741Z,13.10
2019-03-24T09:18:25.720Z,13.30
2019-03-24T09:20:56.698Z,13.40
2019-03-24T09:23:28.736Z,13.40
2019-03-24T09:25:59.698Z,13.50
2019-03-24T09:28:30.677Z,13.50
2019-03-24T09:31:02.616Z,13.90
2019-03-24T09:33:33.716Z,14.10
2019-03-24T09:36:04.667Z,14.10
2019-03-24T09:38:35.652Z,14.30
2019-03-24T09:41:07.807Z,14.40
2019-03-24T09:43:38.788Z,14.60
2019-03-24T09:46:09.735Z,14.90
2019-03-24T09:48:40.749Z,14.90
2019-03-24T09:51:11.739Z,15.10
2019-03-24T09:53:42.735Z,15.00
2019-03-24T09:56:13.735Z,15.00
2019-03-24T09:58:44.819Z,15.10
2019-03-24T10:01:15.768Z,15.30
2019-03-24T10:03:46.853Z,15.30
2019-03-24T10:06:17.897Z,15.40
2019-03-24T10:08:48.853Z,15.50
2019-03-24T10:11:19.840Z,15.70
2019-03-24T10:13:50.990Z,15.90
2019-03-24T10:16:21.976Z,16.40
2019-03-24T10:18:53.025Z,18.30
2019-03-24T10:21:24.080Z,20.90
2019-03-24T10:23:55.030Z,23.70
2019-03-24T10:26:26.060Z,25.80
2019-03-24T10:28:57.065Z,27.70
2019-03-24T10:31:28.049Z,28.90
2019-03-24T10:33:59.001Z,29.90
2019-03-24T10:36:29.996Z,30.70
2019-03-24T10:39:01.017Z,31.50
2019-03-24T10:41:31.998Z,30.70
2019-03-24T10:44:02.958Z,30.50
2019-03-24T10:46:34.027Z,31.40
2019-03-24T10:49:04.973Z,31.30
2019-03-24T10:51:35.962Z,31.40
2019-03-24T10:54:06.916Z,31.70
2019-03-24T10:56:39.149Z,31.40
2019-03-24T10:59:10.131Z,31.90
2019-03-24T11:01:41.118Z,31.10
2019-03-24T11:04:12.089Z,30.30
2019-03-24T11:06:43.141Z,30.00
2019-03-24T11:09:14.240Z,30.80
2019-03-24T11:11:45.223Z,30.50
2019-03-24T11:14:16.205Z,30.90
2019-03-24T11:16:47.164Z,31.90
2019-03-24T11:19:18.141Z,31.60
2019-03-24T11:21:49.096Z,31.50
2019-03-24T11:24:20.074Z,31.90
2019-03-24T11:26:51.028Z,32.00
2019-03-24T11:29:22.011Z,32.00
2019-03-24T11:31:52.960Z,32.10
2019-03-24T11:34:23.945Z,31.20
2019-03-24T11:36:55.989Z,31.10
2019-03-24T11:39:26.974Z,31.20
2019-03-24T11:41:57.924Z,31.70
2019-03-24T11:44:28.968Z,32.00
2019-03-24T11:46:59.924Z,32.70
2019-03-24T11:49:30.922Z,33.30
2019-03-24T11:52:01.867Z,33.30
2019-03-24T11:54:33.870Z,33.30
2019-03-24T11:57:04.990Z,33.40
2019-03-24T11:59:37.055Z,33.40
2019-03-24T12:02:09.390Z,33.20
2019-03-24T12:04:40.414Z,34.00
2019-03-24T12:07:11.363Z,34.40
2019-03-24T12:09:42.440Z,34.90
2019-03-24T12:12:13.508Z,34.80
2019-03-24T12:14:44.555Z,35.00
2019-03-24T12:17:15.601Z,34.20
2019-03-24T12:19:56.488Z,33.90
2019-03-24T12:22:19.270Z,33.30
2019-03-24T12:24:51.256Z,33.00
2019-03-24T12:27:22.201Z,33.10
2019-03-24T12:29:53.177Z,33.20
2019-03-24T12:32:24.125Z,32.70
2019-03-24T12:34:55.106Z,32.30
2019-03-24T12:37:26.053Z,32.00
2019-03-24T12:39:58.056Z,32.70
2019-03-24T12:42:30.857Z,33.40
2019-03-24T12:45:01.840Z,33.40
2019-03-24T12:47:32.890Z,33.90
2019-03-24T12:50:09.366Z,34.00
2019-03-24T12:52:38.257Z,33.70
2019-03-24T12:55:09.641Z,33.10
2019-03-24T12:57:40.593Z,33.30
2019-03-24T13:00:18.883Z,33.80
2019-03-24T13:02:49.840Z,33.90
2019-03-24T13:05:20.924Z,34.60
2019-03-24T13:07:52.488Z,33.60
2019-03-24T13:10:23.527Z,32.70
2019-03-24T13:12:54.522Z,32.70
2019-03-24T13:15:25.507Z,33.00
2019-03-24T13:17:56.461Z,33.30
2019-03-24T13:20:37.824Z,33.50
2019-03-24T13:23:00.104Z,34.30
2019-03-24T13:25:31.257Z,34.00
2019-03-24T13:28:02.204Z,33.50
2019-03-24T13:30:33.183Z,32.70
2019-03-24T13:33:04.338Z,32.30
2019-03-24T13:35:35.325Z,32.80
2019-03-24T13:38:06.291Z,32.40
2019-03-24T13:40:37.340Z,32.50
2019-03-24T13:43:08.297Z,32.70
2019-03-24T13:45:39.272Z,32.70
2019-03-24T13:48:10.240Z,32.30
2019-03-24T13:50:41.288Z,32.20
2019-03-24T13:53:12.238Z,32.50
2019-03-24T13:55:43.215Z,33.20
2019-03-24T13:58:14.245Z,33.00
2019-03-24T14:00:45.333Z,32.00
2019-03-24T14:03:16.326Z,32.00
2019-03-24T14:05:48.342Z,31.90
2019-03-24T14:08:20.276Z,31.60
2019-03-24T14:10:51.252Z,30.10
2019-03-24T14:13:22.285Z,29.40
2019-03-24T14:15:53.274Z,29.70
2019-03-24T14:18:24.423Z,30.80
2019-03-24T14:20:55.431Z,30.90
2019-03-24T14:23:26.451Z,31.30
2019-03-24T14:25:57.444Z,31.30
2019-03-24T14:28:28.394Z,31.20
2019-03-24T14:30:59.545Z,31.10
2019-03-24T14:33:30.545Z,31.20
2019-03-24T14:36:01.563Z,31.10
2019-03-24T14:38:32.552Z,30.50
2019-03-24T14:41:04.531Z,30.90
2019-03-24T14:43:35.566Z,31.60
2019-03-24T14:46:08.073Z,32.30
2019-03-24T14:48:39.083Z,31.70
2019-03-24T14:51:10.065Z,31.80
2019-03-24T14:53:41.082Z,31.50
2019-03-24T14:56:12.051Z,31.20
2019-03-24T14:58:43.022Z,31.00
2019-03-24T15:01:13.976Z,30.90
2019-03-24T15:03:45.152Z,30.70
2019-03-24T15:06:16.122Z,29.90
2019-03-24T15:08:47.169Z,29.90
2019-03-24T15:11:18.213Z,30.00
2019-03-24T15:13:49.285Z,30.30
2019-03-24T15:16:20.398Z,30.20
2019-03-24T15:18:51.539Z,29.90
2019-03-24T15:21:22.542Z,30.00
2019-03-24T15:23:53.582Z,30.00
2019-03-24T15:26:24.569Z,29.90
2019-03-24T15:28:55.516Z,29.40
2019-03-24T15:31:27.895Z,28.40
2019-03-24T15:33:58.858Z,27.90
2019-03-24T15:36:29.845Z,27.20
2019-03-24T15:39:00.790Z,26.60
2019-03-24T15:41:32.274Z,26.00
2019-03-24T15:44:03.242Z,26.10
2019-03-24T15:46:34.306Z,25.90
2019-03-24T15:49:05.257Z,25.60
2019-03-24T15:51:36.368Z,25.60
2019-03-24T15:54:07.394Z,25.70
2019-03-24T15:56:38.363Z,24.90
2019-03-24T15:59:10.319Z,24.60
2019-03-24T16:01:41.336Z,24.70
2019-03-24T16:04:12.289Z,24.80
2019-03-24T16:06:43.466Z,25.00
2019-03-24T16:09:14.508Z,24.80
2019-03-24T16:11:45.502Z,24.70
2019-03-24T16:14:16.484Z,24.40
2019-03-24T16:16:47.541Z,24.00
2019-03-24T16:19:18.574Z,23.40
2019-03-24T16:21:49.541Z,23.20
2019-03-24T16:24:20.505Z,23.40
2019-03-24T16:26:51.458Z,22.80
2019-03-24T16:29:22.426Z,22.60
2019-03-24T16:31:53.452Z,22.40
2019-03-24T16:34:24.435Z,22.30
2019-03-24T16:36:55.384Z,22.40
2019-03-24T16:39:26.394Z,22.20
2019-03-24T16:41:56.378Z,21.90
2019-03-24T16:44:30.098Z,21.60
2019-03-24T16:47:01.153Z,21.20
2019-03-24T16:49:32.142Z,20.60
2019-03-24T16:52:03.088Z,20.00
2019-03-24T16:54:34.141Z,19.30
2019-03-24T16:57:05.088Z,18.70
2019-03-24T16:59:36.105Z,18.50
2019-03-24T17:02:07.249Z,18.10
2019-03-24T17:04:38.250Z,17.70
2019-03-24T17:07:09.314Z,17.40
2019-03-24T17:09:40.371Z,17.20
2019-03-24T17:12:11.355Z,16.80
2019-03-24T17:14:42.308Z,16.50
2019-03-24T17:17:13.291Z,16.30
2019-03-24T17:19:44.329Z,16.30
2019-03-24T17:22:15.310Z,16.10
2019-03-24T17:24:46.367Z,16.00
2019-03-24T17:27:17.362Z,16.00
2019-03-24T17:29:48.382Z,15.90
2019-03-24T17:32:19.370Z,15.70
2019-03-24T17:34:50.325Z,15.60
2019-03-24T17:37:21.306Z,15.60
2019-03-24T17:39:52.263Z,15.40
2019-03-24T17:42:23.241Z,15.30
2019-03-24T17:44:54.205Z,15.00
2019-03-24T17:47:25.226Z,14.90
2019-03-24T17:49:56.227Z,14.70
2019-03-24T17:52:27.145Z,14.50
2019-03-24T17:54:58.771Z,14.40
2019-03-24T17:57:29.777Z,14.30
2019-03-24T18:00:02.082Z,14.40
2019-03-24T18:02:33.166Z,14.20
2019-03-24T18:05:04.762Z,14.20
2019-03-24T18:07:35.718Z,14.30
2019-03-24T18:10:08.696Z,14.30
2019-03-24T18:12:39.651Z,14.20
2019-03-24T18:15:11.659Z,14.10
2019-03-24T18:17:42.610Z,14.10
2019-03-24T18:20:19.088Z,14.00
2019-03-24T18:22:50.039Z,13.90
2019-03-24T18:25:21.075Z,13.80
2019-03-24T18:27:52.026Z,13.60
2019-03-24T18:30:23.120Z,13.60
2019-03-24T18:32:54.076Z,13.50
2019-03-24T18:35:25.058Z,13.40
2019-03-24T18:37:56.007Z,13.40
2019-03-24T18:40:26.991Z,13.30
2019-03-24T18:42:58.151Z,13.30
2019-03-24T18:45:29.133Z,13.20
2019-03-24T18:48:00.089Z,13.10
2019-03-24T18:50:31.080Z,13.00
2019-03-24T18:53:02.279Z,12.90
2019-03-24T18:55:33.291Z,12.80
2019-03-24T18:58:05.491Z,12.80
2019-03-24T19:00:36.475Z,12.80
2019-03-24T19:03:07.470Z,12.70
2019-03-24T19:05:39.424Z,12.60
2019-03-24T19:08:10.429Z,12.60
2019-03-24T19:10:41.369Z,12.50
2019-03-24T19:13:12.361Z,12.50
2019-03-24T19:15:46.294Z,12.40
2019-03-24T19:18:17.360Z,12.40
2019-03-24T19:20:49.363Z,12.20
2019-03-24T19:23:20.404Z,12.10
2019-03-24T19:25:51.454Z,12.10
2019-03-24T19:28:22.443Z,12.10
2019-03-24T19:30:53.414Z,12.00
2019-03-24T19:33:24.533Z,12.00
2019-03-24T19:35:55.525Z,11.90
2019-03-24T19:38:26.641Z,11.80
2019-03-24T19:40:57.591Z,11.70
2019-03-24T19:43:28.584Z,11.60
2019-03-24T19:45:59.586Z,11.50
2019-03-24T19:48:31.765Z,11.60
2019-03-24T19:51:02.783Z,11.50
2019-03-24T19:53:33.886Z,11.50
2019-03-24T19:56:08.055Z,11.30
2019-03-24T19:58:39.034Z,11.30
2019-03-24T20:01:10.027Z,11.40
2019-03-24T20:03:43.393Z,11.40
2019-03-24T20:06:13.654Z,11.40
2019-03-24T20:08:44.600Z,11.30
2019-03-24T20:11:16.698Z,11.40
2019-03-24T20:13:47.667Z,11.40
2019-03-24T20:16:18.734Z,11.30
2019-03-24T20:18:49.681Z,11.30
2019-03-24T20:21:20.992Z,11.30
2019-03-24T20:23:52.006Z,11.30
2019-03-24T20:26:22.997Z,11.20
2019-03-24T20:28:54.042Z,11.00
2019-03-24T20:31:25.259Z,11.00
2019-03-24T20:33:56.276Z,10.90
2019-03-24T20:36:27.241Z,10.90
2019-03-24T20:38:58.228Z,11.00
2019-03-24T20:41:29.186Z,10.80
2019-03-24T20:44:00.177Z,10.60
2019-03-24T20:46:31.127Z,10.50
2019-03-24T20:49:02.141Z,10.50
2019-03-24T20:51:33.220Z,10.40
2019-03-24T20:54:04.371Z,10.30
2019-03-24T20:56:35.471Z,10.20
2019-03-24T20:59:06.457Z,10.20
2019-03-24T21:01:37.420Z,10.20
2019-03-24T21:04:08.457Z,10.20
2019-03-24T21:06:39.444Z,10.20
2019-03-24T21:09:10.891Z,10.10
2019-03-24T21:11:42.045Z,10.00
2019-03-24T21:14:13.033Z,10.00
2019-03-24T21:16:43.983Z,9.90
2019-03-24T21:19:14.973Z,9.90
2019-03-24T21:21:45.916Z,10.00
2019-03-24T21:24:16.888Z,9.80
2019-03-24T21:26:48.975Z,9.90
2019-03-24T21:29:19.953Z,10.00
2019-03-24T21:31:50.931Z,10.00
2019-03-24T21:34:21.890Z,10.00
2019-03-24T21:36:52.931Z,10.10
2019-03-24T21:39:26.223Z,9.90
2019-03-24T21:41:57.436Z,10.00
2019-03-24T21:44:28.391Z,10.00
2019-03-24T21:46:59.382Z,10.00
2019-03-24T21:49:31.333Z,9.80
2019-03-24T21:52:02.306Z,9.70
2019-03-24T21:54:33.254Z,9.70
2019-03-24T21:57:04.380Z,9.60
2019-03-24T21:59:35.326Z,9.60
2019-03-24T22:02:06.393Z,9.50
2019-03-24T22:04:37.321Z,9.20
2019-03-24T22:07:08.291Z,9.10
2019-03-24T22:09:39.335Z,9.00
2019-03-24T22:12:10.472Z,9.00
2019-03-24T22:14:41.427Z,9.00
2019-03-24T22:17:12.410Z,8.90
2019-03-24T22:19:44.346Z,8.80
2019-03-24T22:22:15.340Z,8.60
2019-03-24T22:24:46.290Z,8.60
2019-03-24T22:27:17.268Z,8.60
2019-03-24T22:29:48.191Z,8.20
2019-03-24T22:32:20.266Z,8.20
2019-03-24T22:34:51.245Z,8.20
2019-03-24T22:37:23.382Z,8.10
2019-03-24T22:39:54.528Z,7.80
2019-03-24T22:42:25.818Z,7.60
2019-03-24T22:44:56.899Z,7.70
2019-03-24T22:47:27.860Z,7.70
2019-03-24T22:49:58.833Z,7.60
2019-03-24T22:52:29.862Z,7.30
2019-03-24T22:55:00.856Z,7.20
2019-03-24T22:57:32.758Z,7.30
2019-03-24T23:00:04.818Z,7.30
2019-03-24T23:02:36.168Z,7.60
2019-03-24T23:05:07.631Z,7.50
2019-03-24T23:07:38.606Z,7.40
2019-03-24T23:10:09.598Z,7.30
2019-03-24T23:12:40.566Z,7.50
2019-03-24T23:15:11.839Z,7.70
2019-03-24T23:17:42.786Z,8.00
2019-03-24T23:20:13.765Z,8.20
2019-03-24T23:22:44.703Z,8.20
2019-03-24T23:25:15.675Z,8.30
2019-03-24T23:27:46.614Z,8.30
2019-03-24T23:30:18.121Z,8.30
2019-03-24T23:32:49.119Z,8.30
2019-03-24T23:35:21.264Z,8.30
2019-03-24T23:37:52.382Z,8.50
2019-03-24T23:40:23.658Z,8.40
2019-03-24T23:42:54.663Z,8.30
2019-03-24T23:45:25.645Z,8.30
2019-03-24T23:47:56.595Z,8.10
2019-03-24T23:50:27.673Z,8.00
2019-03-24T23:52:58.731Z,7.90
2019-03-24T23:55:29.704Z,7.80
2019-03-24T23:58:00.656Z,7.70
